No.10 Hasshomaru — JD2992 — position and weather

sailwx.info

Track history (hours):
 
Tides and Currents Weather Stations Pressure Air Temp Water Temp Dewpoint Dewpoint Depression Visibility Wind Speed Wind Dir Waves Ship Positions

No.10 Hasshomaru

Last reported at 2017-Feb-26 12:12 UTC. Time now 2017-Apr-23 17:46 UTC.
Position N 34°54' E 140°01'.
Warning: this ship's position is 56 days out of date.

Length 105 m; draft 5.2 m.

Type: Tanker. MMSI: 431001112.

Date/timePositionNaut miles runAvg speedWind from/ knotsBaromVisibWave heightAir tempDewpointWater temp
2017-Feb-26 12:12N 34°54' E 140°01'1014.7
2017-Feb-26 11:31N 34°52' E 139°49'1313.3
2017-Feb-26 10:33N 35°04' E 139°44'1313.2
2017-Feb-26 09:34N 35°17' E 139°45'8 8.1
2017-Feb-26 08:32N 35°24' E 139°40'0 0.0
2017-Feb-26 07:32N 35°24' E 139°40'0 0.0
2017-Feb-26 06:32N 35°24' E 139°40'0 0.0
2017-Feb-26 05:32N 35°24' E 139°40'0 0.0
2017-Feb-26 04:32N 35°24' E 139°40'0 0.0
2017-Feb-26 03:32N 35°24' E 139°40'4 4.1
2017-Feb-26 02:33N 35°22' E 139°43'0 0.0
2017-Feb-26 01:33N 35°22' E 139°43'0 0.0
2017-Feb-26 00:33N 35°22' E 139°43'0 0.0
2017-Feb-25 23:30N 35°22' E 139°43'0 0.0
2017-Feb-25 22:33N 35°22' E 139°43'0 0.0
2017-Feb-25 21:33N 35°22' E 139°43'0 0.1
2017-Feb-25 20:33N 35°22' E 139°44'0 0.0
2017-Feb-25 19:33N 35°22' E 139°44'0 0.0
2017-Feb-25 18:33N 35°22' E 139°44'0 0.0
2017-Feb-25 17:33N 35°22' E 139°44'0 0.0
2017-Feb-25 16:33N 35°22' E 139°44'3 2.9
2017-Feb-25 15:33N 35°19' E 139°44'1212.4
2017-Feb-25 14:33N 35°07' E 139°46'1312.4
2017-Feb-25 13:31N 34°54' E 139°46'19 0.8
2017-Feb-24 13:16N 34°57' E 140°09'1714.2
2017-Feb-24 12:04N 34°52' E 139°49'713.8
2017-Feb-24 11:33N 34°58' E 139°43'1514.5
2017-Feb-24 10:33N 35°12' E 139°46'1312.9
2017-Feb-24 09:34N 35°24' E 139°43'7 6.4
2017-Feb-24 08:30N 35°31' E 139°46'0 0.0
2017-Feb-24 07:33N 35°31' E 139°46'0 0.0
2017-Feb-24 06:33N 35°31' E 139°46'0 0.0
2017-Feb-24 05:33N 35°31' E 139°46'1 0.8
2017-Feb-24 04:33N 35°30' E 139°45'7 7.5
2017-Feb-24 03:33N 35°23' E 139°44'0 0.0
2017-Feb-24 02:33N 35°23' E 139°44'9 9.1
2017-Feb-24 01:34N 35°14' E 139°47'1312.9
2017-Feb-24 00:33N 35°01' E 139°44'  
Track history (hours):
 
Tides and Currents Weather Stations Pressure Air Temp Water Temp Dewpoint Dewpoint Depression Visibility Wind Speed Wind Dir Waves Ship Positions

No.10 Hasshomaru

Last reported at 2017-Feb-26 12:12 UTC. Time now 2017-Apr-23 17:46 UTC.
Position N 34°54' E 140°01'.
Warning: this ship's position is 56 days out of date.

Length 105 m; draft 5.2 m.

Type: Tanker. MMSI: 431001112.

Date/timePositionNaut miles runAvg speedWind from/ knotsBaromVisibWave heightAir tempDewpointWater temp
2017-Feb-26 12:12N 34°54' E 140°01'1014.7
2017-Feb-26 11:31N 34°52' E 139°49'1313.3
2017-Feb-26 10:33N 35°04' E 139°44'1313.2
2017-Feb-26 09:34N 35°17' E 139°45'8 8.1
2017-Feb-26 08:32N 35°24' E 139°40'0 0.0
2017-Feb-26 07:32N 35°24' E 139°40'0 0.0
2017-Feb-26 06:32N 35°24' E 139°40'0 0.0
2017-Feb-26 05:32N 35°24' E 139°40'0 0.0
2017-Feb-26 04:32N 35°24' E 139°40'0 0.0
2017-Feb-26 03:32N 35°24' E 139°40'4 4.1
2017-Feb-26 02:33N 35°22' E 139°43'0 0.0
2017-Feb-26 01:33N 35°22' E 139°43'0 0.0
2017-Feb-26 00:33N 35°22' E 139°43'0 0.0
2017-Feb-25 23:30N 35°22' E 139°43'0 0.0
2017-Feb-25 22:33N 35°22' E 139°43'0 0.0
2017-Feb-25 21:33N 35°22' E 139°43'0 0.1
2017-Feb-25 20:33N 35°22' E 139°44'0 0.0
2017-Feb-25 19:33N 35°22' E 139°44'0 0.0
2017-Feb-25 18:33N 35°22' E 139°44'0 0.0
2017-Feb-25 17:33N 35°22' E 139°44'0 0.0
2017-Feb-25 16:33N 35°22' E 139°44'3 2.9
2017-Feb-25 15:33N 35°19' E 139°44'1212.4
2017-Feb-25 14:33N 35°07' E 139°46'1312.4
2017-Feb-25 13:31N 34°54' E 139°46'19 0.8
2017-Feb-24 13:16N 34°57' E 140°09'1714.2
2017-Feb-24 12:04N 34°52' E 139°49'713.8
2017-Feb-24 11:33N 34°58' E 139°43'1514.5
2017-Feb-24 10:33N 35°12' E 139°46'1312.9
2017-Feb-24 09:34N 35°24' E 139°43'7 6.4
2017-Feb-24 08:30N 35°31' E 139°46'0 0.0
2017-Feb-24 07:33N 35°31' E 139°46'0 0.0
2017-Feb-24 06:33N 35°31' E 139°46'0 0.0
2017-Feb-24 05:33N 35°31' E 139°46'1 0.8
2017-Feb-24 04:33N 35°30' E 139°45'7 7.5
2017-Feb-24 03:33N 35°23' E 139°44'0 0.0
2017-Feb-24 02:33N 35°23' E 139°44'9 9.1
2017-Feb-24 01:34N 35°14' E 139°47'1312.9
2017-Feb-24 00:33N 35°01' E 139°44'  

Dump ship's entire track history